createdAt,value
2023-06-11T00:04:46.844Z,4.15
2023-06-11T00:15:09.387Z,4.45
2023-06-11T00:25:30.941Z,4.43
2023-06-11T00:35:52.259Z,4.13
2023-06-11T00:46:13.529Z,4.35
2023-06-11T00:56:34.751Z,4.40
2023-06-11T01:07:00.976Z,4.88
2023-06-11T01:17:31.457Z,4.43
2023-06-11T01:28:07.802Z,4.60
2023-06-11T01:38:36.248Z,4.65
2023-06-11T01:48:58.728Z,4.43
2023-06-11T01:59:22.642Z,5.50
2023-06-11T02:09:43.956Z,4.82
2023-06-11T02:20:09.448Z,4.97
2023-06-11T02:30:30.714Z,4.70
2023-06-11T02:40:52.261Z,5.00
2023-06-11T02:51:15.255Z,5.03
2023-06-11T03:01:36.653Z,4.90
2023-06-11T03:11:57.801Z,4.60
2023-06-11T03:22:20.162Z,5.07
2023-06-11T03:32:41.937Z,5.10
2023-06-11T03:43:05.157Z,4.88
2023-06-11T03:53:30.005Z,4.50
2023-06-11T04:03:51.641Z,4.93
2023-06-11T04:14:13.263Z,4.53
2023-06-11T04:24:37.530Z,5.53
2023-06-11T04:35:02.363Z,6.40
2023-06-11T04:45:25.265Z,5.93
2023-06-11T04:55:47.164Z,5.75
2023-06-11T05:06:10.029Z,5.60
2023-06-11T05:16:35.792Z,5.85
2023-06-11T05:26:57.777Z,6.30
2023-06-11T05:37:21.002Z,5.75
2023-06-11T05:47:42.986Z,6.05
2023-06-11T05:58:06.550Z,5.60
2023-06-11T06:08:29.607Z,5.18
2023-06-11T06:18:52.524Z,5.20
2023-06-11T06:29:15.523Z,4.75
2023-06-11T06:39:37.719Z,4.70
2023-06-11T06:49:59.184Z,4.20
2023-06-11T07:00:20.641Z,4.85
2023-06-11T07:10:52.605Z,4.43
2023-06-11T07:21:24.688Z,4.28
2023-06-11T07:31:46.302Z,4.32
2023-06-11T07:42:09.370Z,4.18
2023-06-11T07:52:31.753Z,3.95
2023-06-11T08:03:02.105Z,4.03
2023-06-11T08:13:23.325Z,3.85
2023-06-11T08:23:44.261Z,4.20
2023-06-11T08:34:06.714Z,4.40
2023-06-11T08:44:28.547Z,4.38
2023-06-11T08:54:49.956Z,3.90
2023-06-11T09:05:12.449Z,4.40
2023-06-11T09:15:34.169Z,4.40
2023-06-11T09:25:56.836Z,4.10
2023-06-11T09:36:18.607Z,4.55
2023-06-11T09:46:40.120Z,4.50
2023-06-11T09:57:02.457Z,4.50
2023-06-11T10:07:25.160Z,4.20
2023-06-11T10:17:48.872Z,4.38
2023-06-11T10:28:11.148Z,4.35
2023-06-11T10:38:38.895Z,4.90
2023-06-11T10:49:00.046Z,4.60
2023-06-11T10:59:22.164Z,4.25
2023-06-11T11:09:43.732Z,4.32
2023-06-11T11:20:18.953Z,3.72
2023-06-11T11:30:41.392Z,3.67
2023-06-11T11:41:02.572Z,4.30
2023-06-11T11:51:27.978Z,4.20
2023-06-11T12:01:58.183Z,3.78
2023-06-11T12:12:19.678Z,4.05
2023-06-11T12:22:40.875Z,3.88
2023-06-11T12:33:02.054Z,3.97
2023-06-11T12:43:23.293Z,4.35
2023-06-11T12:53:44.389Z,3.92
2023-06-11T13:04:06.057Z,3.97
2023-06-11T13:14:27.716Z,4.30
2023-06-11T13:24:48.877Z,4.20
2023-06-11T13:35:10.250Z,3.92
2023-06-11T13:45:32.280Z,4.05
2023-06-11T13:55:53.873Z,4.07
2023-06-11T14:06:15.541Z,3.80
2023-06-11T14:16:38.129Z,3.90
2023-06-11T14:26:59.322Z,4.10
2023-06-11T14:37:20.839Z,4.20
2023-06-11T14:47:42.569Z,3.38
2023-06-11T14:58:04.609Z,3.97
2023-06-11T15:08:26.319Z,3.60
2023-06-11T15:18:47.571Z,4.18
2023-06-11T15:29:09.166Z,4.03
2023-06-11T15:39:30.754Z,3.50
2023-06-11T15:49:52.706Z,4.13
2023-06-11T16:00:14.517Z,3.90
2023-06-11T16:10:36.078Z,5.72
2023-06-11T16:20:57.453Z,4.13
2023-06-11T16:31:19.340Z,4.40
2023-06-11T16:41:41.178Z,4.18
2023-06-11T16:52:04.756Z,4.30
2023-06-11T17:02:26.394Z,4.73
2023-06-11T17:12:48.352Z,4.43
2023-06-11T17:23:11.834Z,4.60
2023-06-11T17:33:33.162Z,5.10
2023-06-11T17:43:54.793Z,4.25
2023-06-11T17:54:16.207Z,4.30
2023-06-11T18:04:37.490Z,4.72
2023-06-11T18:14:59.260Z,4.78
2023-06-11T18:25:21.794Z,4.40
2023-06-11T18:35:43.401Z,4.75
2023-06-11T18:46:04.598Z,4.43
2023-06-11T18:56:26.705Z,4.25
2023-06-11T19:06:48.273Z,4.70
2023-06-11T19:17:11.237Z,4.53
2023-06-11T19:27:32.963Z,4.65
2023-06-11T19:37:54.558Z,4.40
2023-06-11T19:48:20.479Z,4.82
2023-06-11T19:58:42.335Z,4.28
2023-06-11T20:09:04.841Z,5.15
2023-06-11T20:19:26.198Z,4.70
2023-06-11T20:29:48.451Z,4.63
2023-06-11T20:40:10.801Z,4.85
2023-06-11T20:50:33.008Z,5.70
2023-06-11T21:00:54.420Z,5.60
2023-06-11T21:11:15.819Z,5.00
2023-06-11T21:21:37.961Z,4.38
2023-06-11T21:31:59.321Z,5.10
2023-06-11T21:42:20.820Z,5.30
2023-06-11T21:52:42.442Z,4.90
2023-06-11T22:03:04.329Z,4.90
2023-06-11T22:13:25.933Z,4.78
2023-06-11T22:23:51.138Z,4.30
2023-06-11T22:34:12.999Z,5.03
2023-06-11T22:44:34.173Z,4.47
2023-06-11T22:54:56.006Z,4.68
2023-06-11T23:05:17.619Z,4.57
2023-06-11T23:15:39.255Z,4.32
2023-06-11T23:26:00.718Z,4.47
2023-06-11T23:36:22.978Z,3.97
2023-06-11T23:46:44.919Z,4.25
2023-06-11T23:57:06.539Z,4.20
